메인 페이지
METAR-TAF:

METAR-TAF

공항 :

코토카 국제공항

아크라, 가나

위도: 05-36N, 경도: 000-10W, 고도: 68m

현재 날씨관측

예보는 2 시간 10분 전, 14:00시(UTC)에 발표되었습니다.
10kt남남동풍과 남서풍을 오가는
온도 31°C
습도 71%
기압 1011 hPa
시정 10km 이상
고도 3000ft 상공 구름 조금, 적란운.
고도 4500ft 상공 구름 조금

METAR: DGAA 181400Z 19010KT 160V220 9999 FEW030CB FEW045 31/25 Q1011 NOSIG

시각: 16:10 (16:10 UTC)

예보

예보는 11 시간 10분 전, 05:00시(UTC)에 발표되었습니다.
예보 대상 시간: 18일 06시부터 19일 12시까지 (UTC)
10kt
시정: 8000m
전환 중
18일 06시부터 18일 08시까지 (UTC)
시정: 3000m
박무
시부터 (UTC)
10kt
시정: 5000m
고도 3000ft 상공 구름 조금
연무
전환 중
18일 20시부터 18일 22시까지 (UTC)
서남서6kt
시정 10km 이상
1500m 미만 상공 구름 및 적란운 없음
확률 40%
19일 05시부터 19일 07시까지 (UTC)
시정: 3000m
박무

TAF: DGAA 180500Z 1806/1912 27010KT 8000 NSC BECMG 1806/1808 3000 BR FM 181100 18010KT 5000 HZ FEW030 BECMG 1820/1822 24006KT CAVOK PROB40 1905/1907 3000 BR

4,000개 이상의 공항 관측 자료 및 예보 (METAR 및 TAF 보고).

지도상에서 검색 가능한 기상관측소가 노란 점과 빨간 점으로 표시되어 있습니다.

기상관측소 명을 보려면 표시 위로 마우스를 이동하세요.

날씨 관측과 예보를 보려면 클릭하세요.

지도 변경 : 확대하려면 엑스 표시가 있는 녹색 버튼, 축소하려면 빼기 표시가 있는 녹색 버튼, 다음 페이지의 지도를 보려면 녹색 화살표를 클릭하세요.


METAR-TAF: